Time;durP1;ratioP1;P1;durP2;ratioP2;P2;SDS_P1;SDS_P2;PMS_P1;PMS_P2;Temp;Humidity;BMP_temperature;BMP_pressure;BME280_temperature;BME280_humidity;BME280_pressure;Samples;Min_cycle;Max_cycle;Signal;HPM_P1;HPM_P2
2022/04/10 00:12:25;;;;;;;11.30;4.90;;;;;;;2.52;65.95;99292.95;107469;1276;94664;-71
2022/04/10 00:14:57;;;;;;;7.50;4.40;;;;;;;2.51;66.08;99294.84;107633;1271;137811;-72
2022/04/10 00:17:29;;;;;;;9.60;5.20;;;;;;;2.51;66.21;99296.20;107705;1271;111335;-71
2022/04/10 00:20:00;;;;;;;9.30;5.00;;;;;;;2.50;66.39;99293.48;106782;1271;137889;-71
2022/04/10 00:22:39;;;;;;;9.20;4.80;;;;;;;2.50;66.45;99297.77;106170;1271;108774;-70
2022/04/10 00:25:13;;;;;;;12.60;5.30;;;;;;;2.49;66.51;99296.08;106039;1271;139236;-70
2022/04/10 00:27:45;;;;;;;10.70;5.60;;;;;;;2.44;66.46;99293.21;106218;1271;96362;-69
2022/04/10 00:30:18;;;;;;;12.50;5.50;;;;;;;2.40;66.60;99290.72;106180;1271;110113;-70
2022/04/10 00:32:52;;;;;;;8.20;5.20;;;;;;;2.38;66.73;99297.77;106060;1271;137992;-70
2022/04/10 00:35:24;;;;;;;7.70;4.90;;;;;;;2.35;66.98;99299.20;106184;1271;107691;-71
2022/04/10 00:37:57;;;;;;;9.40;4.60;;;;;;;2.29;67.12;99301.50;106029;1271;139625;-71
2022/04/10 00:40:29;;;;;;;8.90;4.80;;;;;;;2.25;67.00;99301.05;106092;1268;96568;-70
2022/04/10 00:43:01;;;;;;;9.30;4.70;;;;;;;2.20;67.36;99299.40;106397;1268;110964;-71
2022/04/10 00:45:33;;;;;;;10.60;4.90;;;;;;;2.16;67.38;99304.43;106394;1266;137648;-70
2022/04/10 00:48:05;;;;;;;11.70;4.90;;;;;;;2.13;67.48;99305.83;106434;1268;107936;-71
2022/04/10 00:51:39;;;;;;;8.40;4.60;;;;;;;2.12;67.68;99308.42;106346;1268;138135;-71
2022/04/10 00:53:30;;;;;;;6.70;4.90;;;;;;;2.09;67.75;99313.08;106504;1268;96445;-71
2022/04/10 00:56:02;;;;;;;11.40;5.10;;;;;;;2.05;67.89;99319.48;106390;1268;138036;-71
2022/04/10 00:58:35;;;;;;;10.20;5.30;;;;;;;2.03;67.83;99322.26;106454;1268;108840;-69
2022/04/10 01:01:07;;;;;;;8.70;5.60;;;;;;;2.00;67.98;99324.36;106524;1268;107666;-72
2022/04/10 01:03:39;;;;;;;7.70;4.80;;;;;;;1.98;68.20;99331.23;106323;1268;137705;-70
2022/04/10 01:06:11;;;;;;;9.80;5.30;;;;;;;1.96;68.21;99331.25;106482;1268;96593;-70
2022/04/10 01:08:43;;;;;;;8.40;5.20;;;;;;;1.93;68.26;99332.48;106375;1268;138044;-70
2022/04/10 01:11:16;;;;;;;9.50;5.10;;;;;;;1.89;68.36;99339.23;106479;1268;107725;-70
2022/04/10 01:13:48;;;;;;;8.10;5.30;;;;;;;1.87;68.46;99347.31;106362;1268;137969;-69
2022/04/10 01:16:21;;;;;;;8.80;5.40;;;;;;;1.84;68.35;99346.67;106427;1268;96501;-70
2022/04/10 01:18:54;;;;;;;8.80;5.10;;;;;;;1.84;68.54;99349.92;106527;1268;96594;-69
2022/04/10 01:21:29;;;;;;;12.20;5.40;;;;;;;1.81;68.65;99350.30;106410;1268;138847;-71
2022/04/10 01:24:04;;;;;;;10.70;5.60;;;;;;;1.81;68.73;99353.21;106553;1268;109162;-70
2022/04/10 01:26:36;;;;;;;8.90;5.00;;;;;;;1.79;68.69;99354.23;106428;1268;138986;-70
2022/04/10 01:29:10;;;;;;;8.60;4.90;;;;;;;1.77;68.69;99353.39;106495;1268;96483;-71
2022/04/10 01:31:45;;;;;;;11.10;4.80;;;;;;;1.75;68.93;99354.80;106478;1265;138555;-71
2022/04/10 01:34:18;;;;;;;9.10;5.10;;;;;;;1.73;68.85;99357.05;106623;1268;110915;-70
2022/04/10 01:36:50;;;;;;;9.60;5.20;;;;;;;1.71;68.82;99361.88;106531;1268;108903;-69
2022/04/10 01:39:23;;;;;;;9.90;5.00;;;;;;;1.69;68.93;99366.35;106402;1268;139070;-70
2022/04/10 01:41:56;;;;;;;8.40;4.60;;;;;;;1.66;69.01;99368.27;106447;1267;96535;-70
2022/04/10 01:44:29;;;;;;;9.50;5.00;;;;;;;1.65;69.14;99371.38;106365;1268;138123;-69
2022/04/10 01:47:01;;;;;;;8.80;4.80;;;;;;;1.62;69.23;99369.69;106546;1268;110690;-70
2022/04/10 01:49:33;;;;;;;8.00;4.50;;;;;;;1.59;69.27;99368.49;106430;1267;138295;-69
2022/04/10 01:52:07;;;;;;;8.30;4.60;;;;;;;1.56;69.28;99367.85;106574;1268;108429;-71
2022/04/10 01:54:39;;;;;;;10.70;4.90;;;;;;;1.54;69.52;99373.37;107927;1268;95121;-71
2022/04/10 01:57:11;;;;;;;6.60;4.10;;;;;;;1.50;69.55;99372.54;107790;1268;138604;-71
2022/04/10 01:59:44;;;;;;;8.00;4.50;;;;;;;1.49;69.55;99371.19;107799;1268;229258;-71
2022/04/10 02:02:16;;;;;;;7.20;3.90;;;;;;;1.50;69.71;99371.85;106508;1258;138065;-70
2022/04/10 02:04:48;;;;;;;6.90;4.00;;;;;;;1.51;69.59;99374.58;106231;1270;106689;-70
2022/04/10 02:07:20;;;;;;;7.10;4.70;;;;;;;1.51;69.75;99378.52;106171;1271;96552;-70
2022/04/10 02:09:52;;;;;;;9.50;4.10;;;;;;;1.51;69.59;99382.12;106212;1270;137793;-70
2022/04/10 02:12:24;;;;;;;8.80;4.60;;;;;;;1.53;69.60;99387.76;106297;1270;110964;-70
2022/04/10 02:14:56;;;;;;;9.00;4.20;;;;;;;1.53;69.83;99394.61;106343;1271;137781;-70
2022/04/10 02:17:28;;;;;;;8.50;4.00;;;;;;;1.53;69.85;99401.80;106384;1271;107796;-71
2022/04/10 02:20:00;;;;;;;11.80;4.90;;;;;;;1.53;69.77;99403.35;106259;1270;138284;-70
2022/04/10 02:22:32;;;;;;;9.70;4.40;;;;;;;1.53;69.72;99403.52;106146;1271;96499;-70
2022/04/10 02:25:05;;;;;;;9.60;4.30;;;;;;;1.52;69.78;99399.24;106237;1272;111205;-70
2022/04/10 02:27:37;;;;;;;9.70;4.10;;;;;;;1.53;69.81;99404.89;106362;1271;138523;-70
2022/04/10 02:30:12;;;;;;;7.00;3.60;;;;;;;1.52;69.85;99409.36;106418;1270;108879;-69
2022/04/10 02:32:45;;;;;;;9.10;4.40;;;;;;;1.50;69.99;99415.54;107752;1270;138506;-70
2022/04/10 02:35:17;;;;;;;6.10;4.00;;;;;;;1.48;69.80;99411.79;107900;1270;94798;-70
2022/04/10 02:37:49;;;;;;;8.10;4.20;;;;;;;1.46;69.75;99414.55;107730;1270;138601;-70
2022/04/10 02:40:21;;;;;;;6.90;4.30;;;;;;;1.42;69.98;99416.10;107838;1270;106161;-70
2022/04/10 02:42:53;;;;;;;7.40;4.50;;;;;;;1.41;69.98;99414.59;107883;1270;107727;-70
2022/04/10 02:45:25;;;;;;;5.80;3.70;;;;;;;1.41;69.96;99416.63;106674;1270;138247;-70
2022/04/10 02:47:58;;;;;;;9.40;4.00;;;;;;;1.42;70.04;99416.96;107894;1270;94895;-71
2022/04/10 02:50:31;;;;;;;9.60;4.50;;;;;;;1.41;70.10;99415.09;106719;1270;137882;-70
2022/04/10 02:53:03;;;;;;;11.00;4.10;;;;;;;1.41;70.07;99419.36;106234;1271;108052;-70
2022/04/10 02:55:35;;;;;;;8.10;4.20;;;;;;;1.41;70.23;99420.23;106142;1271;138439;-69
2022/04/10 02:58:07;;;;;;;8.50;4.10;;;;;;;1.39;70.15;99423.85;106413;1270;96482;-70
2022/04/10 03:00:39;;;;;;;7.20;4.30;;;;;;;1.36;70.23;99426.80;106248;1271;96498;-70
2022/04/10 03:03:11;;;;;;;7.20;3.70;;;;;;;1.36;70.11;99429.70;106959;1270;137628;-69
2022/04/10 03:05:43;;;;;;;9.80;3.90;;;;;;;1.37;70.25;99428.16;106498;1271;108526;-70
2022/04/10 03:08:17;;;;;;;9.10;4.20;;;;;;;1.37;70.35;99432.09;106332;1271;139379;-70
2022/04/10 03:10:50;;;;;;;7.90;3.70;;;;;;;1.36;70.36;99433.81;106498;1271;97026;-70
2022/04/10 03:13:23;;;;;;;7.10;4.30;;;;;;;1.35;70.49;99442.90;107686;1270;95599;-74
2022/04/10 03:15:57;;;;;;;8.10;4.20;;;;;;;1.33;70.42;99444.98;106246;1271;137522;-70
2022/04/10 03:18:29;;;;;;;6.00;3.70;;;;;;;1.31;70.42;99446.88;106181;1271;108825;-70
2022/04/10 03:21:01;;;;;;;8.00;4.10;;;;;;;1.28;70.44;99451.36;106186;1271;138089;-70
2022/04/10 03:23:34;;;;;;;7.80;4.40;;;;;;;1.27;70.38;99451.55;106232;1270;96551;-70
2022/04/10 03:26:06;;;;;;;7.60;4.00;;;;;;;1.26;70.58;99456.33;106139;1270;138456;-70
2022/04/10 03:28:39;;;;;;;13.80;6.80;;;;;;;1.26;70.51;99454.77;106286;1268;111207;-68
2022/04/10 03:31:11;;;;;;;9.00;4.20;;;;;;;1.24;70.81;99457.02;106484;1270;108232;-72
2022/04/10 03:33:43;;;;;;;10.80;4.00;;;;;;;1.21;70.58;99455.15;106256;1271;137905;-71
2022/04/10 03:36:15;;;;;;;8.60;4.20;;;;;;;1.20;70.88;99457.38;107838;1270;94740;-70
2022/04/10 03:38:48;;;;;;;9.80;4.60;;;;;;;1.21;71.39;99462.35;107418;1270;138170;-71
2022/04/10 03:41:20;;;;;;;10.30;3.90;;;;;;;1.19;70.98;99464.25;106265;1271;108358;-70
2022/04/10 03:43:52;;;;;;;8.80;4.30;;;;;;;1.19;70.97;99468.02;107778;1270;139965;-71
2022/04/10 03:46:25;;;;;;;8.50;3.80;;;;;;;1.21;70.87;99468.67;106599;1271;108867;-69
2022/04/10 03:48:57;;;;;;;9.10;3.70;;;;;;;1.21;70.86;99471.41;107731;1269;94344;-70
2022/04/10 03:51:30;;;;;;;7.50;4.30;;;;;;;1.20;71.02;99468.52;106135;1270;137847;-69
2022/04/10 03:54:02;;;;;;;8.80;4.20;;;;;;;1.24;70.88;99475.85;106422;1271;110672;-71
2022/04/10 03:56:34;;;;;;;10.30;4.20;;;;;;;1.25;70.84;99475.67;106387;1271;137959;-69
2022/04/10 03:59:07;;;;;;;10.10;4.00;;;;;;;1.26;70.88;99473.28;106388;1270;108307;-70
2022/04/10 04:01:39;;;;;;;12.10;3.80;;;;;;;1.28;70.86;99477.90;107777;1269;138303;-70
2022/04/10 04:04:12;;;;;;;11.20;4.50;;;;;;;1.29;70.76;99483.02;107610;1270;96493;-70
2022/04/10 04:06:44;;;;;;;10.30;4.70;;;;;;;1.31;70.73;99490.38;106453;1271;111214;-69
2022/04/10 04:09:16;;;;;;;8.20;4.30;;;;;;;1.33;70.76;99492.08;106263;1271;138244;-69
2022/04/10 04:11:49;;;;;;;8.60;5.20;;;;;;;1.35;70.71;99498.89;106510;1268;109161;-70
2022/04/10 04:14:21;;;;;;;10.80;4.70;;;;;;;1.39;70.66;99504.35;107700;1269;138730;-71
2022/04/10 04:16:53;;;;;;;10.40;4.30;;;;;;;1.42;70.58;99509.30;107896;1270;94826;-71
2022/04/10 04:19:25;;;;;;;10.10;4.70;;;;;;;1.48;70.52;99508.93;107892;1270;110083;-71
2022/04/10 04:21:58;;;;;;;10.40;4.10;;;;;;;1.54;70.32;99516.92;107806;1266;138213;-71
2022/04/10 04:24:30;;;;;;;9.40;4.20;;;;;;;1.71;70.39;99514.05;107842;1270;107860;-71
2022/04/10 04:27:02;;;;;;;7.00;3.90;;;;;;;2.39;70.32;99513.23;106408;1270;139306;-70
2022/04/10 04:29:36;;;;;;;9.00;4.20;;;;;;;3.43;69.30;99514.31;106590;1271;96343;-69
2022/04/10 04:32:10;;;;;;;8.50;3.60;;;;;;;4.42;67.69;99510.71;106342;1271;137908;-69
2022/04/10 04:34:42;;;;;;;8.10;3.90;;;;;;;5.45;65.99;99514.40;107843;1270;109326;-72
2022/04/10 04:37:15;;;;;;;9.30;3.70;;;;;;;6.37;63.48;99510.60;107894;1269;108679;-71
2022/04/10 04:39:47;;;;;;;8.40;3.50;;;;;;;7.27;62.09;99507.47;107675;1271;139212;-72
2022/04/10 04:42:19;;;;;;;9.00;4.30;;;;;;;8.24;60.67;99508.14;107796;1271;94394;-71
2022/04/10 04:44:52;;;;;;;9.10;3.90;;;;;;;9.19;58.48;99509.58;106949;1270;138651;-73
2022/04/10 04:47:23;;;;;;;6.70;3.50;;;;;;;10.06;56.88;99506.64;106436;1268;108963;-72
2022/04/10 04:49:57;;;;;;;7.40;3.70;;;;;;;10.77;54.97;99509.28;106294;1271;137602;-69
2022/04/10 04:52:29;;;;;;;7.80;3.40;;;;;;;11.37;53.08;99515.07;106434;1269;96453;-71
2022/04/10 04:55:01;;;;;;;7.30;3.70;;;;;;;12.03;51.82;99512.75;106413;1270;96477;-70
2022/04/10 04:57:33;;;;;;;7.90;3.20;;;;;;;12.76;50.62;99515.13;106304;1271;137291;-70
2022/04/10 05:00:09;;;;;;;7.30;3.80;;;;;;;13.47;49.38;99512.69;106302;1271;109789;-71
2022/04/10 05:02:44;;;;;;;8.10;3.80;;;;;;;14.39;48.26;99507.73;107016;1271;137475;-71
2022/04/10 05:05:16;;;;;;;6.80;3.30;;;;;;;15.26;46.81;99508.70;106224;1271;96453;-72
2022/04/10 05:07:48;;;;;;;5.20;3.20;;;;;;;16.13;45.58;99512.73;106237;1270;137853;-70
2022/04/10 05:10:21;;;;;;;5.70;3.10;;;;;;;17.05;44.15;99513.08;106375;1271;109936;-71
2022/04/10 05:12:53;;;;;;;6.70;3.10;;;;;;;17.78;42.45;99513.77;106419;1268;107014;-71
2022/04/10 05:15:29;;;;;;;7.70;3.60;;;;;;;18.28;40.70;99511.27;106281;1270;138224;-71
2022/04/10 05:18:01;;;;;;;7.30;3.10;;;;;;;18.91;40.22;99514.24;106437;1271;96476;-71
2022/04/10 05:20:35;;;;;;;5.00;2.90;;;;;;;19.65;39.20;99510.63;106183;1271;138482;-71
2022/04/10 05:23:15;;;;;;;7.80;3.10;;;;;;;20.28;37.08;99505.89;106216;1271;110871;-71
2022/04/10 05:25:48;;;;;;;7.90;3.20;;;;;;;20.84;36.61;99508.55;106064;1271;137620;-71
2022/04/10 05:28:20;;;;;;;4.60;2.50;;;;;;;21.37;35.43;99509.39;106327;1271;108155;-71
2022/04/10 05:30:52;;;;;;;4.90;2.90;;;;;;;21.91;34.29;99503.27;106431;1271;96461;-71
2022/04/10 05:33:27;;;;;;;;;;;;;;;22.11;32.84;99503.30;106171;1272;137531;-70
2022/04/10 05:35:59;;;;;;;7.30;2.80;;;;;;;22.38;32.79;99506.76;106494;1270;110123;-71
2022/04/10 05:38:32;;;;;;;7.40;2.60;;;;;;;22.76;32.16;99503.78;107746;1271;138437;-71
2022/04/10 05:41:04;;;;;;;6.70;2.70;;;;;;;23.13;31.13;99500.60;107362;1271;109181;-70
2022/04/10 05:43:39;;;;;;;8.60;3.70;;;;;;;23.44;30.51;99499.73;106171;1271;138212;-70
2022/04/10 05:46:11;;;;;;;6.60;2.80;;;;;;;23.66;29.73;99501.88;106391;1271;96575;-70
2022/04/10 05:48:46;;;;;;;6.90;3.50;;;;;;;23.97;29.32;99505.52;106401;1271;111027;-70
2022/04/10 05:51:18;;;;;;;5.70;3.10;;;;;;;24.26;28.67;99504.94;107775;1270;138435;-71
2022/04/10 05:53:50;;;;;;;6.00;2.80;;;;;;;24.33;27.95;99506.45;107721;1271;107674;-71
2022/04/10 05:56:22;;;;;;;6.00;2.90;;;;;;;24.13;27.35;99510.81;107712;1270;138159;-72
2022/04/10 05:58:54;;;;;;;5.30;2.80;;;;;;;24.11;27.70;99516.83;106524;1271;96492;-70
2022/04/10 06:01:26;;;;;;;5.50;2.60;;;;;;;24.36;27.00;99508.33;106366;1269;111395;-71
2022/04/10 06:03:59;;;;;;;5.20;2.90;;;;;;;24.34;26.52;99517.11;106173;1270;137359;-71
2022/04/10 06:06:31;;;;;;;7.20;3.20;;;;;;;24.03;25.80;99513.36;106451;1271;108358;-73
2022/04/10 06:09:15;;;;;;;6.60;3.10;;;;;;;24.34;26.08;99512.61;106287;1271;137584;-73
2022/04/10 06:11:48;;;;;;;6.40;3.00;;;;;;;24.60;25.98;99514.21;106392;1271;96484;-70
2022/04/10 06:14:22;;;;;;;6.20;2.90;;;;;;;24.69;25.26;99512.79;107709;1269;137514;-72
2022/04/10 06:16:54;;;;;;;6.00;3.00;;;;;;;24.80;25.87;99522.52;106856;1271;110039;-72
2022/04/10 06:19:28;;;;;;;5.90;2.90;;;;;;;25.21;25.75;99526.00;106260;1271;109092;-73
2022/04/10 06:22:00;;;;;;;5.40;2.70;;;;;;;25.60;25.61;99526.95;106296;1271;139234;-73
2022/04/10 06:24:34;;;;;;;5.00;2.70;;;;;;;25.84;24.41;99530.56;106389;1271;96552;-72
2022/04/10 06:27:07;;;;;;;5.50;3.00;;;;;;;25.76;24.43;99526.81;106314;1271;137631;-71
2022/04/10 06:29:40;;;;;;;5.80;3.10;;;;;;;26.07;23.99;99523.35;106897;1269;109007;-71
2022/04/10 06:32:13;;;;;;;7.90;3.20;;;;;;;25.94;23.70;99532.18;106143;1271;137658;-73
2022/04/10 06:34:47;;;;;;;5.80;3.40;;;;;;;26.13;23.98;99530.30;106509;1268;96522;-72
2022/04/10 06:37:19;;;;;;;7.80;3.60;;;;;;;26.06;23.50;99527.69;106471;1268;96467;-73
2022/04/10 06:39:51;;;;;;;6.20;3.10;;;;;;;25.88;23.51;99543.33;106128;1271;137524;-71
2022/04/10 06:42:25;;;;;;;7.00;3.10;;;;;;;26.13;23.65;99538.19;106458;1270;108509;-71
2022/04/10 06:45:13;;;;;;;9.10;3.60;;;;;;;26.20;23.13;99539.38;106333;1271;137496;-73
2022/04/10 06:48:02;;;;;;;5.80;3.20;;;;;;;24.62;23.35;99544.40;106382;1270;96461;-70
2022/04/10 06:50:44;;;;;;;8.70;3.30;;;;;;;22.51;24.14;99550.14;106266;1271;138347;-74
2022/04/10 06:53:20;;;;;;;5.90;3.10;;;;;;;20.36;25.76;99559.58;106255;1271;110964;-72
2022/04/10 06:55:52;;;;;;;6.90;3.40;;;;;;;18.91;27.34;99562.29;106170;1271;138235;-71
2022/04/10 06:58:25;;;;;;;8.50;4.70;;;;;;;19.39;28.00;99561.84;107769;1271;109071;-71
2022/04/10 07:00:57;;;;;;;7.30;3.20;;;;;;;20.03;26.98;99560.75;106230;1271;96541;-72
2022/04/10 07:03:31;;;;;;;8.80;3.80;;;;;;;18.99;27.63;99568.55;107708;1271;137296;-72
2022/04/10 07:06:04;;;;;;;6.50;3.20;;;;;;;17.68;28.96;99577.77;107810;1271;110179;-72
2022/04/10 07:08:39;;;;;;;10.80;3.50;;;;;;;16.46;30.08;99569.80;107734;1270;137629;-71
2022/04/10 07:11:11;;;;;;;6.80;3.60;;;;;;;16.37;30.87;99575.30;107822;1271;108814;-71
2022/04/10 07:13:44;;;;;;;6.20;3.40;;;;;;;17.01;31.09;99581.33;107680;1270;137777;-71
2022/04/10 07:16:17;;;;;;;5.70;3.00;;;;;;;18.46;29.97;99568.34;107554;1270;94659;-73
2022/04/10 07:18:49;;;;;;;5.60;2.90;;;;;;;19.47;28.58;99570.77;106410;1270;111111;-71
2022/04/10 07:24:11;;;;;;;6.10;3.30;;;;;;;20.76;27.98;99571.27;106305;1271;108938;-71
2022/04/10 07:26:52;;;;;;;8.10;3.60;;;;;;;20.89;26.98;99568.67;106254;1271;137776;-72
2022/04/10 07:29:24;;;;;;;8.60;2.90;;;;;;;20.89;27.16;99571.24;106312;1270;96607;-72
2022/04/10 07:31:57;;;;;;;5.20;3.00;;;;;;;21.16;26.55;99572.20;106153;1271;137474;-71
2022/04/10 07:34:29;;;;;;;7.50;3.10;;;;;;;20.25;26.28;99572.20;106411;1270;108455;-72
2022/04/10 07:37:07;;;;;;;6.20;3.40;;;;;;;18.81;27.60;99579.92;106393;1271;108752;-71
2022/04/10 07:39:47;;;;;;;6.90;3.50;;;;;;;17.82;28.72;99592.63;106206;1271;137509;-71
2022/04/10 07:42:24;;;;;;;6.00;3.20;;;;;;;17.61;29.65;99591.65;106184;1269;96466;-71
2022/04/10 07:47:25;;;;;;;9.60;2.80;;;;;;;18.48;29.29;99588.10;106362;1271;137402;-70
2022/04/10 07:48:19;;;;;;;8.60;3.30;;;;;;;19.26;27.70;99589.67;106920;1270;108855;-72
2022/04/10 07:50:51;;;;;;;7.60;2.70;;;;;;;19.80;27.43;99579.75;106219;1270;137663;-72
2022/04/10 07:53:28;;;;;;;6.90;2.70;;;;;;;20.67;26.74;99586.66;106456;1268;96465;-72
2022/04/10 07:56:02;;;;;;;6.00;2.80;;;;;;;21.45;25.94;99585.78;106592;1271;137481;-73
2022/04/10 07:58:37;;;;;;;7.30;2.80;;;;;;;21.46;25.53;99591.04;107790;1269;111089;-73
2022/04/10 08:01:22;;;;;;;5.20;2.70;;;;;;;21.54;25.63;99590.65;106311;1268;109671;-70
2022/04/10 08:03:55;;;;;;;5.60;2.70;;;;;;;21.86;25.91;99597.00;107221;1270;138015;-73
2022/04/10 08:06:47;;;;;;;5.50;2.40;;;;;;;22.31;25.28;99595.30;106411;1271;96490;-73
2022/04/10 08:09:19;;;;;;;8.40;3.00;;;;;;;22.60;24.69;99588.66;107284;1269;137352;-74
2022/04/10 08:11:53;;;;;;;6.30;2.70;;;;;;;22.90;24.10;99589.11;107258;1270;110109;-73
2022/04/10 08:14:25;;;;;;;6.10;2.70;;;;;;;21.84;24.33;99602.34;106264;1270;137453;-72
2022/04/10 08:16:57;;;;;;;6.30;2.80;;;;;;;20.87;25.05;99600.02;106386;1271;107442;-72
2022/04/10 08:19:29;;;;;;;6.40;2.30;;;;;;;20.67;25.79;99600.98;106391;1271;96468;-74
2022/04/10 08:22:01;;;;;;;4.90;2.20;;;;;;;19.61;25.60;99609.62;106343;1270;137276;-74
2022/04/10 08:24:33;;;;;;;5.90;2.70;;;;;;;18.34;26.72;99617.84;106345;1271;110133;-72
2022/04/10 08:27:05;;;;;;;6.30;2.30;;;;;;;17.56;27.86;99629.61;106324;1271;137488;-72
2022/04/10 08:29:38;;;;;;;7.10;2.80;;;;;;;16.50;28.42;99625.68;106420;1269;108227;-72
2022/04/10 08:32:10;;;;;;;7.70;2.70;;;;;;;15.20;29.72;99631.27;107753;1268;138841;-72
2022/04/10 08:34:43;;;;;;;6.40;2.40;;;;;;;14.11;30.83;99650.80;107846;1269;96248;-72
2022/04/10 08:37:15;;;;;;;7.50;2.90;;;;;;;13.01;32.39;99655.29;106502;1271;111704;-72
2022/04/10 08:39:47;;;;;;;6.00;2.40;;;;;;;12.15;33.56;99664.12;106227;1271;137616;-72
2022/04/10 08:42:21;;;;;;;6.40;2.50;;;;;;;11.44;34.45;99665.11;106368;1269;108036;-73
2022/04/10 08:44:54;;;;;;;7.70;2.40;;;;;;;10.89;35.35;99671.55;106257;1271;137862;-73
2022/04/10 08:47:26;;;;;;;7.30;2.80;;;;;;;10.48;36.21;99684.20;106346;1269;97851;-72
2022/04/10 08:50:01;;;;;;;8.40;2.70;;;;;;;10.15;37.08;99683.59;106346;1270;137605;-73
2022/04/10 08:52:34;;;;;;;7.50;3.00;;;;;;;9.81;37.62;99691.33;106397;1271;108780;-73
2022/04/10 08:55:10;;;;;;;6.50;3.00;;;;;;;9.57;38.72;99692.91;106369;1270;108172;-72
2022/04/10 08:57:42;;;;;;;6.90;3.20;;;;;;;9.23;39.25;99697.30;106278;1270;138084;-72
2022/04/10 09:00:18;;;;;;;6.40;3.20;;;;;;;8.97;40.22;99699.75;106425;1269;97875;-73
2022/04/10 09:02:51;;;;;;;8.80;3.30;;;;;;;8.71;40.94;99702.36;106313;1271;137225;-71
2022/04/10 09:05:25;;;;;;;8.30;3.50;;;;;;;8.55;41.37;99707.08;106461;1269;107839;-74
2022/04/10 09:08:11;;;;;;;7.00;2.80;;;;;;;8.47;42.20;99704.36;106320;1268;138723;-73
2022/04/10 09:11:00;;;;;;;6.60;2.80;;;;;;;8.33;42.27;99711.20;106405;1268;97915;-72
2022/04/10 09:13:35;;;;;;;4.20;2.80;;;;;;;8.21;42.70;99720.05;106402;1268;98445;-72
2022/04/10 09:16:18;;;;;;;7.70;3.30;;;;;;;7.99;42.76;99716.21;106243;1269;137123;-72
2022/04/10 09:18:55;;;;;;;8.00;3.20;;;;;;;7.76;43.73;99718.81;106331;1270;108902;-72
2022/04/10 09:21:30;;;;;;;6.30;3.10;;;;;;;7.51;44.47;99716.95;106224;1271;137847;-72
2022/04/10 09:24:04;;;;;;;9.80;3.60;;;;;;;7.29;44.77;99729.83;106855;1269;98271;-72
2022/04/10 09:26:48;;;;;;;8.50;3.10;;;;;;;7.16;45.26;99725.66;106280;1270;137104;-72
2022/04/10 09:29:21;;;;;;;8.30;3.20;;;;;;;7.15;45.75;99733.13;107424;1269;111262;-72
2022/04/10 09:31:54;;;;;;;8.50;3.10;;;;;;;7.12;45.78;99733.03;106310;1271;138819;-71
2022/04/10 09:34:33;;;;;;;8.30;3.20;;;;;;;7.04;45.91;99734.29;106365;1270;108514;-72
2022/04/10 09:37:27;;;;;;;7.10;3.50;;;;;;;6.92;46.40;99744.44;106403;1270;97821;-72
2022/04/10 09:40:24;;;;;;;10.10;3.40;;;;;;;6.79;46.60;99742.70;106186;1270;137052;-72
2022/04/10 09:43:03;;;;;;;10.90;4.00;;;;;;;6.68;47.16;99743.16;106378;1270;112468;-72
2022/04/10 09:45:39;;;;;;;8.60;3.40;;;;;;;6.70;47.05;99750.35;106303;1270;137577;-71
2022/04/10 09:48:24;;;;;;;8.40;3.30;;;;;;;6.82;46.94;99749.20;106399;1270;107608;-72
2022/04/10 09:50:59;;;;;;;9.70;3.70;;;;;;;6.88;46.74;99751.45;106331;1270;137941;-70
2022/04/10 09:53:33;;;;;;;6.70;3.20;;;;;;;6.85;46.64;99746.55;106411;1271;97854;-72
2022/04/10 09:56:07;;;;;;;9.00;3.20;;;;;;;6.84;46.30;99745.70;106283;1270;138039;-71
2022/04/10 09:58:43;;;;;;;9.20;3.20;;;;;;;7.03;46.38;99747.79;106354;1269;108878;-71
2022/04/10 10:01:17;;;;;;;9.70;2.90;;;;;;;7.38;46.27;99750.34;106416;1269;108844;-71
2022/04/10 10:03:51;;;;;;;10.40;3.60;;;;;;;7.61;45.64;99747.27;106100;1271;137701;-71
2022/04/10 10:06:24;;;;;;;10.90;3.70;;;;;;;7.75;45.76;99746.17;107889;1270;95999;-72
2022/04/10 10:08:57;;;;;;;10.20;3.10;;;;;;;7.78;45.77;99746.27;107782;1270;138080;-71
2022/04/10 10:11:30;;;;;;;7.30;3.40;;;;;;;7.71;45.70;99744.91;107854;1270;108854;-72
2022/04/10 10:14:03;;;;;;;8.40;3.30;;;;;;;7.57;45.73;99760.89;107642;1270;138270;-71
2022/04/10 10:16:37;;;;;;;10.30;3.70;;;;;;;7.44;45.99;99763.84;107857;1270;96187;-71
2022/04/10 10:19:11;;;;;;;9.70;3.40;;;;;;;7.34;46.12;99758.38;106991;1270;96600;-72
2022/04/10 10:21:43;;;;;;;8.20;3.50;;;;;;;7.36;46.14;99757.64;106181;1270;138054;-71
2022/04/10 10:24:17;;;;;;;9.20;3.50;;;;;;;7.48;46.12;99761.13;106227;1271;109232;-72
2022/04/10 10:27:05;;;;;;;10.20;3.30;;;;;;;7.54;45.83;99760.09;106137;1270;137654;-72
2022/04/10 10:29:53;;;;;;;9.60;3.70;;;;;;;7.52;45.96;99761.34;106242;1270;98404;-71
2022/04/10 10:32:39;;;;;;;9.90;3.40;;;;;;;7.70;46.26;99755.83;106158;1270;137295;-72
2022/04/10 10:35:14;;;;;;;6.40;3.30;;;;;;;8.12;45.86;99754.43;106260;1270;112406;-72
2022/04/10 10:37:54;;;;;;;7.20;3.20;;;;;;;8.66;45.55;99746.36;106150;1271;139329;-71
2022/04/10 10:40:27;;;;;;;9.80;3.50;;;;;;;9.27;44.17;99752.30;106331;1271;108832;-71
2022/04/10 10:43:03;;;;;;;10.90;3.60;;;;;;;9.67;43.16;99751.05;106189;1270;97831;-70
2022/04/10 10:45:44;;;;;;;9.80;3.30;;;;;;;9.82;42.38;99747.90;106079;1270;137712;-71
2022/04/10 10:48:42;;;;;;;5.30;2.60;;;;;;;10.29;41.69;99754.48;106248;1270;112471;-71
2022/04/10 10:51:44;;;;;;;7.70;3.40;;;;;;;10.50;41.25;99750.36;106154;1270;139811;-71
2022/04/10 10:54:21;;;;;;;8.90;3.10;;;;;;;10.52;41.31;99750.98;106228;1270;107619;-71
2022/04/10 10:56:54;;;;;;;7.60;3.40;;;;;;;10.38;41.10;99755.03;106136;1270;137600;-71
2022/04/10 10:59:31;;;;;;;7.60;3.20;;;;;;;10.08;40.99;99755.94;106264;1270;97854;-73
2022/04/10 11:02:11;;;;;;;8.30;3.30;;;;;;;9.79;41.20;99751.69;106243;1270;137658;-71
2022/04/10 11:05:08;;;;;;;11.00;3.50;;;;;;;9.51;41.58;99761.86;107892;1268;106726;-72
2022/04/10 11:07:56;;;;;;;9.20;2.90;;;;;;;9.31;42.21;99766.23;106495;1270;108808;-71
2022/04/10 11:10:29;;;;;;;11.10;3.10;;;;;;;9.25;42.34;99762.10;106502;1270;98024;-71
2022/04/10 11:13:06;;;;;;;7.10;2.80;;;;;;;9.27;42.37;99770.01;106395;1268;97843;-71
2022/04/10 11:15:48;;;;;;;8.40;3.20;;;;;;;9.17;42.80;99761.88;106207;1269;137576;-72
2022/04/10 11:18:37;;;;;;;8.00;3.50;;;;;;;9.02;43.25;99773.63;106225;1270;107792;-72
2022/04/10 11:21:13;;;;;;;8.00;3.70;;;;;;;8.81;43.57;99780.20;106125;1270;137721;-73
2022/04/10 11:24:00;;;;;;;10.60;4.40;;;;;;;8.60;43.87;99778.65;106374;1270;97832;-71
2022/04/10 11:26:44;;;;;;;9.60;4.00;;;;;;;8.50;44.62;99786.39;106177;1271;137837;-75
2022/04/10 11:29:21;;;;;;;44.30;27.90;;;;;;;8.44;44.69;99782.23;107892;1268;112497;-74
2022/04/10 11:31:54;;;;;;;;;;;;;;;8.37;44.42;99785.76;107949;1268;107894;-73
2022/04/10 11:34:28;;;;;;;91.80;62.60;;;;;;;8.27;44.49;99787.24;107275;1269;123590;-74
2022/04/10 11:37:03;;;;;;;12.20;6.50;;;;;;;8.18;44.69;99791.52;106307;1270;97808;-74
2022/04/10 11:39:37;;;;;;;14.70;7.20;;;;;;;8.07;44.66;99791.83;106292;1268;138912;-71
2022/04/10 11:42:11;;;;;;;7.60;4.10;;;;;;;8.02;44.97;99796.12;106401;1269;111287;-71
2022/04/10 11:44:45;;;;;;;12.30;4.80;;;;;;;8.05;45.22;99799.49;106224;1270;137933;-72
2022/04/10 11:47:18;;;;;;;20.50;11.00;;;;;;;8.06;45.21;99797.02;106352;1268;109595;-70
2022/04/10 11:49:54;;;;;;;9.70;4.40;;;;;;;8.04;45.32;99800.23;106330;1268;98028;-74
2022/04/10 11:52:26;;;;;;;12.90;5.50;;;;;;;7.95;45.36;99809.48;106278;1270;136929;-73
2022/04/10 11:54:58;;;;;;;9.70;3.50;;;;;;;7.84;45.30;99812.20;106378;1270;112434;-72
2022/04/10 11:57:30;;;;;;;9.40;3.60;;;;;;;7.75;45.62;99813.00;106320;1268;137472;-71
2022/04/10 12:00:02;;;;;;;12.50;4.30;;;;;;;7.67;45.90;99811.83;106368;1268;107657;-72
2022/04/10 12:02:39;;;;;;;9.30;4.00;;;;;;;7.64;46.14;99816.41;106271;1269;138215;-72
2022/04/10 12:05:13;;;;;;;7.70;3.90;;;;;;;7.66;46.16;99810.30;106397;1270;97930;-72
2022/04/10 12:07:45;;;;;;;10.00;3.40;;;;;;;7.72;46.12;99805.63;106416;1270;112548;-72
2022/04/10 12:10:23;;;;;;;9.00;3.60;;;;;;;7.72;46.12;99805.11;106954;1271;138154;-73
2022/04/10 12:12:57;;;;;;;8.20;3.40;;;;;;;7.74;45.83;99808.19;106403;1271;107762;-72